X  ZamknijMetar - Lotnicze dane pogodowe     EPKT Katowice International

Temperatura

-1°C Temperatura

-2°C Punkt rosy

93% Wilgotność



Wiatr

 3 km/h

 2 MPH

 1 m/s

 2 KTS



Cisza
Nord
Obecne warunki

Mist Mist
Ciśnienie 1004.92 (hPa) - 29.68 (in)
Widoczność 1.1 (mi) - 1.8 (km)
Lotnisko
Kod lotniska EPKT

Lokalizacja Katowice International 23 (km)

Metar:
EPKT 280400Z VRB02KT 1800 BR NSC M01/M02 Q1005

Czas: 28-01-2020 05:00